Voidomatis — A8FX2 — position and weather

sailwx.info

Track history (hours):
 
Tides and Currents Weather Stations Pressure Air Temp Water Temp Dewpoint Dewpoint Depression Visibility Wind Speed Wind Dir Waves Ship Positions

Voidomatis

Last reported at 2016-Apr-28 03:22 UTC. Time now 2016-Apr-30 01:26 UTC.
Position N 29°12' W 094°31'.

Length 214 m; draft 11.9 m.

Type: Tanker. MMSI: 636012508.

Date/timePositionNaut miles runAvg speedWind from/ knotsBaromVisibWave heightAir tempDewpointWater temp
2016-Apr-28 03:22N 29°12' W 094°31'2010.4
2016-Apr-28 01:28N 29°24' W 094°49'910.2
2016-Apr-28 00:33N 29°32' W 094°54'10 9.6
2016-Apr-27 23:33N 29°40' W 094°59'5 5.3
2016-Apr-27 22:33N 29°44' W 095°03'0 0.0
2016-Apr-26 11:33N 29°44' W 095°03'3 0.1
2016-Apr-24 15:06N 29°45' W 095°06'0 0.6
2016-Apr-24 14:34N 29°45' W 095°06'8 7.5
2016-Apr-24 13:33N 29°41' W 094°59'1212.2
2016-Apr-24 12:34N 29°30' W 094°52'  
2016-Apr-20 11:25N 30°06' W 088°32'0 0.0
2016-Apr-20 09:07N 30°06' W 088°32'0 0.0
2016-Apr-20 08:31N 30°06' W 088°32'0 0.0
2016-Apr-20 07:19N 30°06' W 088°32'0 0.0
2016-Apr-20 06:31N 30°06' W 088°32'0 0.0
2016-Apr-20 05:31N 30°06' W 088°32'  
Track history (hours):
 
Tides and Currents Weather Stations Pressure Air Temp Water Temp Dewpoint Dewpoint Depression Visibility Wind Speed Wind Dir Waves Ship Positions

Voidomatis

Last reported at 2016-Apr-28 03:22 UTC. Time now 2016-Apr-30 01:26 UTC.
Position N 29°12' W 094°31'.

Length 214 m; draft 11.9 m.

Type: Tanker. MMSI: 636012508.

Date/timePositionNaut miles runAvg speedWind from/ knotsBaromVisibWave heightAir tempDewpointWater temp
2016-Apr-28 03:22N 29°12' W 094°31'2010.4
2016-Apr-28 01:28N 29°24' W 094°49'910.2
2016-Apr-28 00:33N 29°32' W 094°54'10 9.6
2016-Apr-27 23:33N 29°40' W 094°59'5 5.3
2016-Apr-27 22:33N 29°44' W 095°03'0 0.0
2016-Apr-26 11:33N 29°44' W 095°03'3 0.1
2016-Apr-24 15:06N 29°45' W 095°06'0 0.6
2016-Apr-24 14:34N 29°45' W 095°06'8 7.5
2016-Apr-24 13:33N 29°41' W 094°59'1212.2
2016-Apr-24 12:34N 29°30' W 094°52'  
2016-Apr-20 11:25N 30°06' W 088°32'0 0.0
2016-Apr-20 09:07N 30°06' W 088°32'0 0.0
2016-Apr-20 08:31N 30°06' W 088°32'0 0.0
2016-Apr-20 07:19N 30°06' W 088°32'0 0.0
2016-Apr-20 06:31N 30°06' W 088°32'0 0.0
2016-Apr-20 05:31N 30°06' W 088°32'  

Dump ship's entire track history